createdAt,value
2018-08-10T00:00:26.174Z,76.50
2018-08-10T00:02:54.642Z,76.80
2018-08-10T00:05:23.091Z,76.60
2018-08-10T00:07:51.496Z,76.80
2018-08-10T00:10:19.931Z,76.60
2018-08-10T00:12:48.352Z,76.20
2018-08-10T00:15:16.842Z,75.70
2018-08-10T00:17:45.204Z,76.00
2018-08-10T00:20:15.032Z,76.00
2018-08-10T00:22:44.220Z,75.90
2018-08-10T00:25:16.407Z,76.10
2018-08-10T00:27:44.837Z,76.10
2018-08-10T00:30:15.755Z,74.50
2018-08-10T00:32:45.524Z,72.70
2018-08-10T00:35:13.975Z,73.70
2018-08-10T00:37:43.183Z,73.60
2018-08-10T00:40:18.336Z,72.20
2018-08-10T00:42:46.944Z,71.80
2018-08-10T00:45:16.304Z,72.00
2018-08-10T00:47:45.106Z,71.90
2018-08-10T00:50:14.598Z,72.40
2018-08-10T00:52:43.727Z,72.20
2018-08-10T00:55:13.911Z,72.80
2018-08-10T00:57:42.700Z,73.40
2018-08-10T01:00:16.227Z,73.40
2018-08-10T01:02:44.784Z,73.90
2018-08-10T01:05:13.245Z,74.20
2018-08-10T01:07:41.638Z,74.10
2018-08-10T01:10:14.147Z,74.30
2018-08-10T01:12:42.714Z,74.50
2018-08-10T01:15:13.173Z,74.90
2018-08-10T01:17:42.864Z,74.90
2018-08-10T01:20:27.911Z,75.10
2018-08-10T01:23:01.739Z,75.30
2018-08-10T01:25:30.121Z,75.60
2018-08-10T01:27:59.679Z,76.00
2018-08-10T01:30:30.455Z,76.40
2018-08-10T01:32:59.264Z,76.20
2018-08-10T01:35:28.345Z,76.20
2018-08-10T01:37:58.013Z,76.20
2018-08-10T01:40:26.524Z,76.20
2018-08-10T01:42:54.952Z,76.20
2018-08-10T01:45:23.440Z,76.40
2018-08-10T01:47:51.913Z,76.80
2018-08-10T01:50:20.388Z,76.80
2018-08-10T01:52:48.941Z,77.00
2018-08-10T01:55:17.517Z,77.30
2018-08-10T01:57:45.933Z,77.40
2018-08-10T02:00:14.342Z,77.50
2018-08-10T02:02:42.788Z,77.80
2018-08-10T02:05:13.820Z,78.10
2018-08-10T02:07:42.648Z,78.10
2018-08-10T02:10:14.778Z,78.50
2018-08-10T02:12:43.995Z,78.40
2018-08-10T02:15:15.489Z,78.40
2018-08-10T02:17:43.980Z,78.00
2018-08-10T02:20:13.988Z,78.10
2018-08-10T02:22:42.581Z,78.10
2018-08-10T02:25:12.608Z,78.10
2018-08-10T02:27:42.004Z,78.20
2018-08-10T02:30:11.724Z,78.20
2018-08-10T02:32:41.100Z,78.40
2018-08-10T02:35:09.630Z,78.50
2018-08-10T02:37:38.809Z,78.60
2018-08-10T02:40:16.017Z,78.80
2018-08-10T02:42:46.427Z,78.50
2018-08-10T02:45:15.278Z,78.80
2018-08-10T02:47:43.985Z,78.80
2018-08-10T02:50:12.546Z,78.40
2018-08-10T02:52:40.992Z,78.20
2018-08-10T02:55:10.277Z,78.80
2018-08-10T02:57:39.025Z,78.80
2018-08-10T03:00:09.231Z,79.00
2018-08-10T03:02:37.769Z,79.20
2018-08-10T03:05:06.903Z,79.20
2018-08-10T03:07:35.345Z,79.30
2018-08-10T03:10:04.192Z,79.30
2018-08-10T03:12:32.651Z,78.70
2018-08-10T03:15:01.254Z,79.00
2018-08-10T03:17:29.758Z,79.20
2018-08-10T03:19:58.265Z,79.30
2018-08-10T03:22:26.657Z,79.40
2018-08-10T03:24:55.133Z,80.10
2018-08-10T03:32:58.641Z,80.10
2018-08-10T03:35:27.049Z,80.10
2018-08-10T03:37:55.689Z,79.90
2018-08-10T03:40:24.089Z,80.10
2018-08-10T03:42:52.465Z,80.30
2018-08-10T03:45:20.928Z,80.50
2018-08-10T03:47:49.313Z,80.10
2018-08-10T03:50:17.818Z,80.30
2018-08-10T03:52:46.214Z,80.20
2018-08-10T03:55:14.642Z,79.80
2018-08-10T03:57:42.995Z,79.40
2018-08-10T04:00:13.504Z,79.90
2018-08-10T04:02:42.120Z,80.20
2018-08-10T04:05:11.788Z,79.90
2018-08-10T04:07:40.398Z,80.20
2018-08-10T04:10:09.868Z,79.20
2018-08-10T04:12:41.789Z,79.20
2018-08-10T04:15:12.520Z,79.50
2018-08-10T04:17:41.040Z,79.30
2018-08-10T04:20:09.840Z,79.20
2018-08-10T04:22:38.286Z,79.80
2018-08-10T04:25:06.670Z,79.80
2018-08-10T04:27:38.059Z,79.90
2018-08-10T04:30:07.722Z,79.60
2018-08-10T04:32:36.224Z,79.20
2018-08-10T04:35:04.852Z,79.40
2018-08-10T04:37:33.367Z,79.60
2018-08-10T04:40:01.850Z,79.10
2018-08-10T04:42:30.301Z,79.20
2018-08-10T04:44:58.826Z,79.30
2018-08-10T04:47:27.388Z,78.90
2018-08-10T04:49:55.770Z,79.10
2018-08-10T04:52:24.268Z,79.50
2018-08-10T04:54:52.679Z,79.10
2018-08-10T04:57:21.076Z,79.60
2018-08-10T04:59:49.470Z,78.80
2018-08-10T05:02:17.880Z,79.20
2018-08-10T05:04:46.385Z,79.60
2018-08-10T05:07:14.829Z,78.80
2018-08-10T05:09:43.301Z,79.20
2018-08-10T05:12:11.712Z,79.50
2018-08-10T05:14:40.146Z,79.40
2018-08-10T05:17:08.593Z,79.40
2018-08-10T05:19:37.051Z,79.80
2018-08-10T05:22:05.549Z,79.20
2018-08-10T05:24:33.953Z,79.70
2018-08-10T05:27:02.333Z,79.40
2018-08-10T05:29:30.846Z,79.30
2018-08-10T05:31:59.390Z,79.30
2018-08-10T05:34:27.896Z,79.10
2018-08-10T05:36:56.350Z,78.30
2018-08-10T05:39:24.781Z,77.90
2018-08-10T05:41:53.225Z,77.70
2018-08-10T05:44:21.629Z,77.50
2018-08-10T05:46:50.157Z,76.20
2018-08-10T05:49:18.556Z,76.20
2018-08-10T05:51:46.962Z,75.70
2018-08-10T05:54:15.662Z,76.40
2018-08-10T05:56:44.101Z,75.80
2018-08-10T05:59:12.498Z,76.40
2018-08-10T06:01:40.947Z,76.40
2018-08-10T06:04:09.390Z,75.20
2018-08-10T06:06:37.814Z,75.10
2018-08-10T06:09:09.739Z,74.60
2018-08-10T06:11:38.166Z,73.80
2018-08-10T06:14:06.560Z,73.90
2018-08-10T06:16:35.062Z,74.30
2018-08-10T06:19:03.527Z,73.90
2018-08-10T06:21:32.176Z,73.20
2018-08-10T06:24:00.571Z,73.30
2018-08-10T06:26:29.029Z,72.50
2018-08-10T06:28:57.412Z,72.80
2018-08-10T06:31:26.354Z,72.70
2018-08-10T06:33:55.210Z,72.60
2018-08-10T06:36:23.641Z,72.20
2018-08-10T06:38:52.091Z,71.60
2018-08-10T06:41:20.528Z,71.80
2018-08-10T06:43:48.937Z,71.60
2018-08-10T06:46:17.388Z,71.90
2018-08-10T06:48:45.865Z,71.00
2018-08-10T06:51:14.406Z,70.90
2018-08-10T06:53:42.748Z,71.00
2018-08-10T06:56:11.201Z,70.70
2018-08-10T06:58:39.569Z,69.90
2018-08-10T07:01:08.130Z,70.40
2018-08-10T07:03:36.471Z,71.20
2018-08-10T07:06:05.039Z,70.50
2018-08-10T07:08:33.408Z,70.00
2018-08-10T07:11:01.832Z,70.60
2018-08-10T07:13:30.451Z,69.20
2018-08-10T07:15:58.844Z,69.10
2018-08-10T07:18:27.312Z,68.80
2018-08-10T07:20:55.710Z,68.70
2018-08-10T07:23:24.162Z,67.80
2018-08-10T07:25:52.639Z,68.00
2018-08-10T07:28:21.308Z,68.20
2018-08-10T07:30:49.735Z,66.80
2018-08-10T07:33:18.142Z,66.70
2018-08-10T07:35:46.572Z,67.10
2018-08-10T07:38:15.101Z,66.00
2018-08-10T07:40:43.557Z,64.70
2018-08-10T07:43:12.345Z,64.90
2018-08-10T07:45:40.792Z,64.40
2018-08-10T07:48:09.417Z,65.40
2018-08-10T07:50:37.889Z,63.90
2018-08-10T07:53:06.926Z,63.40
2018-08-10T07:55:35.374Z,63.60
2018-08-10T07:58:04.039Z,63.60
2018-08-10T08:00:32.447Z,64.10
2018-08-10T08:03:01.371Z,64.40
2018-08-10T08:05:30.738Z,64.00
2018-08-10T08:07:59.199Z,63.30
2018-08-10T08:10:27.702Z,63.00
2018-08-10T08:12:56.156Z,62.40
2018-08-10T08:15:24.612Z,61.00
2018-08-10T08:17:53.126Z,60.00
2018-08-10T08:20:28.228Z,59.60
2018-08-10T08:23:02.913Z,60.30
2018-08-10T08:25:31.353Z,61.50
2018-08-10T08:28:00.589Z,61.30
2018-08-10T08:30:29.043Z,60.30
2018-08-10T08:32:57.873Z,59.60
2018-08-10T08:35:26.339Z,58.60
2018-08-10T08:38:00.091Z,57.30
2018-08-10T08:40:28.535Z,57.00
2018-08-10T08:42:56.981Z,57.50
2018-08-10T08:45:36.513Z,58.60
2018-08-10T08:48:04.870Z,58.10
2018-08-10T08:50:33.280Z,57.70
2018-08-10T08:53:01.749Z,57.20
2018-08-10T08:55:32.783Z,57.70
2018-08-10T08:58:01.221Z,56.60
2018-08-10T09:00:29.817Z,56.20
2018-08-10T09:02:58.433Z,57.10
2018-08-10T09:05:26.945Z,55.70
2018-08-10T09:07:55.701Z,55.60
2018-08-10T09:10:24.130Z,55.90
2018-08-10T09:12:52.745Z,55.80
2018-08-10T09:15:22.051Z,56.50
2018-08-10T09:17:50.552Z,55.90
2018-08-10T09:20:19.003Z,55.40
2018-08-10T09:22:47.441Z,54.80
2018-08-10T09:25:18.082Z,54.60
2018-08-10T09:27:46.602Z,53.90
2018-08-10T09:30:16.866Z,54.60
2018-08-10T09:32:45.355Z,55.40
2018-08-10T09:35:14.493Z,56.20
2018-08-10T09:37:43.352Z,53.70
2018-08-10T09:40:14.938Z,52.90
2018-08-10T09:42:43.716Z,53.00
2018-08-10T09:45:13.089Z,53.20
2018-08-10T09:47:42.136Z,53.20
2018-08-10T09:50:11.901Z,52.50
2018-08-10T09:52:40.538Z,53.20
2018-08-10T09:55:19.045Z,53.60
2018-08-10T09:57:48.050Z,53.00
2018-08-10T10:00:21.813Z,52.70
2018-08-10T10:02:53.164Z,51.40
2018-08-10T10:05:23.007Z,50.90
2018-08-10T10:07:51.548Z,51.00
2018-08-10T10:10:20.126Z,51.30
2018-08-10T10:12:48.758Z,52.00
2018-08-10T10:15:17.257Z,49.30
2018-08-10T10:17:45.803Z,49.40
2018-08-10T10:20:14.607Z,49.40
2018-08-10T10:22:42.986Z,50.40
2018-08-10T10:25:11.508Z,50.70
2018-08-10T10:27:39.993Z,50.60
2018-08-10T10:30:08.889Z,50.00
2018-08-10T10:32:37.484Z,49.30
2018-08-10T10:35:06.673Z,50.40
2018-08-10T10:37:35.339Z,50.20
2018-08-10T10:40:03.885Z,49.70
2018-08-10T10:42:32.382Z,49.60
2018-08-10T10:45:00.813Z,50.70
2018-08-10T10:47:29.334Z,48.60
2018-08-10T10:49:57.748Z,48.70
2018-08-10T10:52:26.256Z,48.70
2018-08-10T10:54:54.780Z,48.60
2018-08-10T10:57:23.326Z,47.40
2018-08-10T10:59:51.747Z,48.80
2018-08-10T11:02:20.217Z,46.80
2018-08-10T11:04:48.702Z,46.90
2018-08-10T11:07:17.093Z,47.40
2018-08-10T11:09:45.647Z,48.40
2018-08-10T11:12:14.192Z,49.40
2018-08-10T11:14:42.629Z,49.00
2018-08-10T11:17:11.154Z,47.30
2018-08-10T11:19:39.661Z,46.90
2018-08-10T11:22:08.173Z,46.60
2018-08-10T11:24:36.575Z,47.40
2018-08-10T11:27:05.168Z,47.00
2018-08-10T11:29:33.889Z,45.50
2018-08-10T11:32:02.437Z,45.20
2018-08-10T11:34:30.807Z,46.30
2018-08-10T11:36:59.289Z,46.40
2018-08-10T11:39:27.734Z,47.00
2018-08-10T11:41:56.143Z,46.40
2018-08-10T11:44:24.649Z,45.30
2018-08-10T11:46:53.135Z,44.90
2018-08-10T11:49:21.601Z,45.60
2018-08-10T11:51:50.059Z,45.50
2018-08-10T11:54:18.569Z,45.70
2018-08-10T11:56:47.089Z,46.40
2018-08-10T11:59:15.685Z,45.70
2018-08-10T12:01:44.138Z,47.60
2018-08-10T12:04:12.605Z,45.00
2018-08-10T12:06:41.109Z,43.50
2018-08-10T12:09:11.110Z,42.70
2018-08-10T12:11:39.848Z,42.00
2018-08-10T12:14:09.068Z,41.20
2018-08-10T12:16:37.446Z,39.40
2018-08-10T12:19:06.098Z,38.70
2018-08-10T12:21:34.477Z,39.30
2018-08-10T12:24:02.885Z,37.80
2018-08-10T12:26:31.265Z,38.30
2018-08-10T12:28:59.715Z,39.90
2018-08-10T12:31:28.234Z,41.40
2018-08-10T12:33:56.857Z,43.50
2018-08-10T12:36:25.333Z,45.80
2018-08-10T12:38:53.831Z,46.70
2018-08-10T12:41:22.234Z,46.80
2018-08-10T12:43:50.745Z,48.40
2018-08-10T12:46:19.197Z,49.40
2018-08-10T12:48:47.655Z,51.00
2018-08-10T12:51:16.113Z,51.00
2018-08-10T12:53:44.549Z,51.30
2018-08-10T12:56:13.019Z,52.00
2018-08-10T12:58:41.474Z,52.70
2018-08-10T13:01:10.054Z,49.00
2018-08-10T13:03:38.480Z,42.80
2018-08-10T13:06:07.088Z,40.60
2018-08-10T13:08:35.498Z,39.90
2018-08-10T13:11:04.215Z,39.90
2018-08-10T13:13:32.609Z,41.30
2018-08-10T13:16:01.175Z,40.20
2018-08-10T13:18:29.716Z,39.70
2018-08-10T13:20:58.136Z,39.70
2018-08-10T13:23:26.516Z,37.90
2018-08-10T13:25:54.995Z,37.00
2018-08-10T13:28:23.417Z,36.10
2018-08-10T13:30:51.783Z,36.60
2018-08-10T13:33:20.188Z,35.30
2018-08-10T13:35:48.605Z,34.50
2018-08-10T13:38:16.996Z,30.80
2018-08-10T13:40:45.430Z,29.30
2018-08-10T13:43:14.727Z,27.60
2018-08-10T13:45:43.132Z,26.70
2018-08-10T13:48:11.648Z,28.80
2018-08-10T13:50:40.055Z,30.30
2018-08-10T13:53:08.653Z,33.10
2018-08-10T13:55:37.153Z,35.50
2018-08-10T13:58:05.567Z,37.50
2018-08-10T14:00:34.003Z,38.70
2018-08-10T14:03:02.475Z,38.40
2018-08-10T14:05:30.913Z,38.30
2018-08-10T14:07:59.405Z,37.00
2018-08-10T14:10:27.848Z,35.80
2018-08-10T14:12:56.320Z,35.90
2018-08-10T14:15:24.707Z,38.30
2018-08-10T14:17:53.210Z,38.60
2018-08-10T14:20:21.691Z,38.90
2018-08-10T14:22:50.124Z,40.10
2018-08-10T14:25:18.689Z,40.80
2018-08-10T14:27:47.245Z,41.80
2018-08-10T14:30:16.307Z,42.50
2018-08-10T14:32:44.800Z,41.90
2018-08-10T14:35:13.671Z,42.30
2018-08-10T14:37:42.085Z,42.50
2018-08-10T14:40:12.793Z,42.60
2018-08-10T14:42:41.335Z,42.40
2018-08-10T14:45:12.780Z,41.20
2018-08-10T14:47:41.287Z,39.80
2018-08-10T14:50:11.873Z,39.10
2018-08-10T14:52:40.498Z,38.20
2018-08-10T14:55:10.762Z,38.00
2018-08-10T14:57:39.248Z,38.20
2018-08-10T15:00:10.361Z,38.80
2018-08-10T15:02:38.818Z,39.10
2018-08-10T15:05:07.788Z,38.90
2018-08-10T15:07:36.803Z,37.90
2018-08-10T15:10:06.729Z,37.60
2018-08-10T15:12:38.744Z,36.70
2018-08-10T15:15:09.053Z,37.40
2018-08-10T15:17:37.499Z,37.40
2018-08-10T15:20:06.679Z,37.60
2018-08-10T15:22:35.157Z,37.00
2018-08-10T15:25:03.742Z,38.40
2018-08-10T15:27:32.165Z,38.50
2018-08-10T15:30:00.676Z,38.90
2018-08-10T15:32:29.124Z,37.90
2018-08-10T15:34:57.565Z,37.90
2018-08-10T15:37:26.381Z,38.20
2018-08-10T15:39:54.803Z,38.60
2018-08-10T15:42:23.234Z,38.50
2018-08-10T15:44:51.618Z,39.10
2018-08-10T15:47:20.062Z,39.40
2018-08-10T15:49:48.494Z,38.80
2018-08-10T15:52:17.013Z,39.50
2018-08-10T15:54:45.393Z,39.70
2018-08-10T15:57:13.827Z,40.10
2018-08-10T15:59:42.242Z,40.10
2018-08-10T16:02:10.807Z,40.10
2018-08-10T16:04:39.296Z,41.00
2018-08-10T16:07:07.821Z,40.00
2018-08-10T16:09:36.195Z,39.90
2018-08-10T16:12:04.594Z,39.60
2018-08-10T16:14:33.004Z,39.10
2018-08-10T16:17:01.676Z,40.10
2018-08-10T16:19:30.661Z,39.40
2018-08-10T16:21:59.209Z,39.90
2018-08-10T16:24:27.698Z,39.40
2018-08-10T16:26:56.159Z,38.80
2018-08-10T16:29:24.604Z,39.10
2018-08-10T16:31:53.070Z,39.30
2018-08-10T16:34:23.332Z,38.60
2018-08-10T16:36:51.759Z,38.80
2018-08-10T16:39:20.243Z,39.20
2018-08-10T16:41:48.717Z,38.90
2018-08-10T16:44:17.119Z,38.70
2018-08-10T16:46:45.531Z,37.90
2018-08-10T16:49:13.963Z,37.80
2018-08-10T16:51:42.448Z,37.80
2018-08-10T16:54:10.826Z,38.40
2018-08-10T16:56:39.240Z,38.80
2018-08-10T16:59:07.969Z,39.20
2018-08-10T17:01:36.428Z,38.60
2018-08-10T17:04:04.946Z,37.80
2018-08-10T17:06:33.361Z,37.10
2018-08-10T17:09:01.890Z,38.20
2018-08-10T17:11:30.851Z,39.10
2018-08-10T17:13:59.232Z,39.70
2018-08-10T17:16:27.639Z,40.50
2018-08-10T17:18:56.152Z,40.20
2018-08-10T17:21:24.628Z,40.20
2018-08-10T17:23:53.077Z,40.30
2018-08-10T17:26:21.505Z,40.20
2018-08-10T17:28:49.963Z,40.40
2018-08-10T17:31:18.401Z,40.70
2018-08-10T17:33:46.841Z,40.80
2018-08-10T17:36:15.313Z,41.30
2018-08-10T17:38:43.775Z,41.60
2018-08-10T17:41:12.233Z,41.80
2018-08-10T17:43:40.754Z,41.80
2018-08-10T17:46:09.744Z,41.80
2018-08-10T17:48:38.179Z,42.40
2018-08-10T17:51:06.650Z,42.30
2018-08-10T17:53:35.132Z,42.70
2018-08-10T17:56:03.603Z,42.50
2018-08-10T17:58:32.220Z,42.90
2018-08-10T18:01:00.617Z,43.00
2018-08-10T18:03:29.433Z,43.00
2018-08-10T18:05:57.908Z,43.60
2018-08-10T18:08:26.329Z,44.30
2018-08-10T18:10:55.234Z,44.10
2018-08-10T18:16:00.489Z,44.50
2018-08-10T18:18:29.272Z,44.40
2018-08-10T18:20:57.731Z,44.60
2018-08-10T18:23:26.116Z,44.90
2018-08-10T18:25:54.593Z,45.10
2018-08-10T18:28:23.378Z,45.10
2018-08-10T18:30:51.885Z,45.60
2018-08-10T18:33:20.272Z,45.60
2018-08-10T18:35:48.812Z,45.70
2018-08-10T18:38:17.269Z,46.30
2018-08-10T18:40:45.829Z,46.40
2018-08-10T18:43:14.160Z,46.50
2018-08-10T18:45:42.527Z,46.70
2018-08-10T18:48:10.982Z,46.90
2018-08-10T18:50:39.528Z,47.30
2018-08-10T18:53:07.944Z,47.70
2018-08-10T18:55:36.457Z,48.00
2018-08-10T18:58:05.756Z,48.40
2018-08-10T19:00:34.348Z,48.70
2018-08-10T19:03:02.868Z,49.00
2018-08-10T19:05:31.378Z,49.80
2018-08-10T19:07:59.893Z,49.30
2018-08-10T19:10:29.138Z,49.50
2018-08-10T19:12:57.681Z,50.00
2018-08-10T19:15:26.169Z,50.00
2018-08-10T19:17:54.880Z,50.80
2018-08-10T19:20:23.420Z,51.20
2018-08-10T19:22:51.936Z,51.30
2018-08-10T19:25:20.408Z,51.50
2018-08-10T19:27:48.999Z,51.40
2018-08-10T19:30:21.053Z,51.40
2018-08-10T19:32:49.494Z,51.90
2018-08-10T19:35:18.662Z,52.00
2018-08-10T19:37:47.190Z,52.40
2018-08-10T19:40:17.016Z,52.20
2018-08-10T19:42:45.733Z,52.40
2018-08-10T19:45:15.583Z,52.40
2018-08-10T19:47:44.401Z,52.50
2018-08-10T19:50:14.319Z,53.00
2018-08-10T19:52:43.025Z,52.90
2018-08-10T19:55:13.790Z,53.20
2018-08-10T19:57:42.371Z,53.10
2018-08-10T20:00:12.643Z,52.80
2018-08-10T20:02:41.365Z,54.00
2018-08-10T20:05:10.584Z,54.30
2018-08-10T20:07:39.468Z,54.40
2018-08-10T20:10:08.878Z,54.40
2018-08-10T20:12:37.678Z,55.10
2018-08-10T20:15:10.928Z,55.30
2018-08-10T20:17:39.484Z,55.40
2018-08-10T20:20:08.842Z,55.80
2018-08-10T20:22:37.335Z,55.80
2018-08-10T20:25:06.714Z,55.80
2018-08-10T20:27:35.421Z,55.60
2018-08-10T20:30:04.931Z,54.40
2018-08-10T20:32:33.615Z,54.80
2018-08-10T20:35:02.158Z,54.80
2018-08-10T20:37:30.616Z,54.30
2018-08-10T20:39:59.055Z,54.50
2018-08-10T20:42:27.486Z,54.70
2018-08-10T20:44:55.912Z,55.40
2018-08-10T20:47:30.777Z,55.20
2018-08-10T20:49:59.276Z,54.70
2018-08-10T20:52:28.099Z,55.30
2018-08-10T20:54:56.616Z,56.40
2018-08-10T20:57:25.014Z,55.90
2018-08-10T20:59:53.479Z,57.00
2018-08-10T21:02:21.906Z,58.20
2018-08-10T21:04:50.385Z,58.70
2018-08-10T21:07:18.834Z,58.80
2018-08-10T21:09:47.371Z,58.90
2018-08-10T21:12:15.778Z,58.90
2018-08-10T21:14:46.401Z,58.90
2018-08-10T21:17:14.846Z,59.20
2018-08-10T21:19:43.350Z,59.20
2018-08-10T21:22:11.893Z,60.20
2018-08-10T21:24:40.391Z,59.30
2018-08-10T21:27:10.851Z,59.50
2018-08-10T21:29:39.485Z,59.20
2018-08-10T21:32:13.460Z,59.70
2018-08-10T21:34:41.956Z,59.00
2018-08-10T21:37:10.566Z,58.30
2018-08-10T21:39:39.459Z,58.40
2018-08-10T21:42:08.170Z,57.60
2018-08-10T21:44:38.331Z,57.90
2018-08-10T21:47:07.326Z,57.80
2018-08-10T21:49:35.708Z,57.90
2018-08-10T21:52:04.336Z,58.40
2018-08-10T21:54:32.768Z,58.90
2018-08-10T21:57:01.237Z,59.70
2018-08-10T21:59:30.119Z,59.90
2018-08-10T22:01:58.927Z,59.90
2018-08-10T22:04:31.994Z,60.20
2018-08-10T22:07:01.192Z,60.00
2018-08-10T22:09:29.640Z,60.10
2018-08-10T22:11:58.373Z,60.50
2018-08-10T22:14:31.947Z,60.40
2018-08-10T22:17:05.577Z,60.40
2018-08-10T22:19:34.155Z,60.40
2018-08-10T22:22:02.598Z,60.20
2018-08-10T22:24:31.005Z,60.30
2018-08-10T22:27:00.641Z,60.40
2018-08-10T22:29:29.096Z,60.60
2018-08-10T22:31:57.640Z,60.00
2018-08-10T22:34:26.127Z,59.90
2018-08-10T22:36:54.835Z,60.30
2018-08-10T22:39:23.489Z,60.40
2018-08-10T22:41:52.131Z,60.50
2018-08-10T22:49:19.104Z,60.20
2018-08-10T22:51:47.559Z,59.90
2018-08-10T22:54:15.962Z,60.50
2018-08-10T22:56:44.464Z,60.40
2018-08-10T22:59:12.881Z,59.90
2018-08-10T23:01:41.428Z,60.10
2018-08-10T23:04:09.881Z,60.20
2018-08-10T23:06:38.277Z,60.10
2018-08-10T23:09:08.676Z,59.90
2018-08-10T23:11:37.175Z,59.80
2018-08-10T23:14:05.604Z,60.20
2018-08-10T23:16:34.101Z,60.50
2018-08-10T23:19:02.490Z,60.20
2018-08-10T23:21:30.954Z,60.20
2018-08-10T23:23:59.363Z,60.50
2018-08-10T23:26:27.764Z,60.80
2018-08-10T23:28:56.145Z,60.90
2018-08-10T23:31:24.546Z,60.90
2018-08-10T23:33:52.944Z,61.00
2018-08-10T23:36:21.364Z,60.80
2018-08-10T23:38:49.789Z,61.30
2018-08-10T23:41:18.236Z,61.50
2018-08-10T23:43:46.675Z,61.60
2018-08-10T23:46:15.151Z,61.90
2018-08-10T23:48:43.650Z,62.00
2018-08-10T23:51:12.000Z,62.30
2018-08-10T23:53:40.408Z,62.50
2018-08-10T23:56:08.830Z,62.60
2018-08-10T23:58:37.465Z,63.40
